Time;durP1;ratioP1;P1;durP2;ratioP2;P2;SDS_P1;SDS_P2;PMS_P1;PMS_P2;Temp;Humidity;BMP_temperature;BMP_pressure;BME280_temperature;BME280_humidity;BME280_pressure;Samples;Min_cycle;Max_cycle;Signal;HPM_P1;HPM_P2
2021/09/19 00:01:01;;;;;;;41.03;21.35;;;17.20;75.90;;;;;;4967322;28;20051;-58
2021/09/19 00:03:28;;;;;;;30.58;17.05;;;17.20;76.20;;;;;;4965406;28;20061;-58
2021/09/19 00:05:55;;;;;;;36.75;19.33;;;17.20;75.90;;;;;;4968745;28;20050;-57
2021/09/19 00:08:22;;;;;;;32.42;17.33;;;17.10;76.10;;;;;;4963740;28;20050;-57
2021/09/19 00:10:50;;;;;;;18.75;12.88;;;17.10;76.20;;;;;;4968491;28;20058;-58
2021/09/19 00:13:18;;;;;;;23.90;13.05;;;17.00;76.30;;;;;;4965468;28;20045;-59
2021/09/19 00:15:44;;;;;;;23.48;12.48;;;17.00;76.40;;;;;;4949821;28;20051;-58
2021/09/19 00:18:12;;;;;;;15.43;10.63;;;17.00;76.80;;;;;;4965877;28;20084;-58
2021/09/19 00:20:39;;;;;;;16.08;11.32;;;16.80;77.00;;;;;;4957359;28;20463;-59
2021/09/19 00:23:07;;;;;;;19.45;11.98;;;16.80;77.10;;;;;;4968861;28;20074;-59
2021/09/19 00:25:34;;;;;;;17.50;11.20;;;16.80;77.30;;;;;;4949198;28;20098;-59
2021/09/19 00:28:01;;;;;;;22.08;10.82;;;16.70;77.20;;;;;;4971154;28;20054;-60
2021/09/19 00:30:27;;;;;;;20.35;11.13;;;16.70;77.70;;;;;;4964713;28;20054;-59
2021/09/19 00:32:54;;;;;;;16.63;10.65;;;16.70;77.90;;;;;;4969317;28;20082;-59
2021/09/19 00:35:21;;;;;;;17.23;9.48;;;16.70;77.90;;;;;;4966458;28;20110;-59
2021/09/19 00:37:48;;;;;;;19.55;9.93;;;16.70;77.90;;;;;;4964498;28;20118;-60
2021/09/19 00:40:15;;;;;;;14.40;9.63;;;16.60;78.10;;;;;;4957628;28;20047;-60
2021/09/19 00:42:41;;;;;;;14.23;10.20;;;16.60;78.10;;;;;;4959111;28;20097;-57
2021/09/19 00:45:11;;;;;;;13.70;9.32;;;16.70;78.10;;;;;;4964021;28;20430;-59
2021/09/19 00:47:38;;;;;;;18.60;10.23;;;16.70;78.10;;;;;;4968509;28;20050;-59
2021/09/19 00:50:06;;;;;;;18.45;9.32;;;16.80;78.20;;;;;;4956600;28;20055;-59
2021/09/19 00:52:33;;;;;;;13.13;8.95;;;16.70;78.20;;;;;;4967013;28;20537;-59
2021/09/19 00:55:00;;;;;;;14.18;9.10;;;16.70;78.30;;;;;;4936397;28;20054;-59
2021/09/19 00:57:27;;;;;;;15.43;9.32;;;16.70;78.50;;;;;;4960052;28;20573;-59
2021/09/19 00:59:54;;;;;;;14.90;9.27;;;16.70;78.70;;;;;;4966833;28;20066;-60
2021/09/19 01:02:21;;;;;;;18.00;9.80;;;16.70;78.70;;;;;;4965877;28;20125;-58
2021/09/19 01:04:48;;;;;;;16.65;9.90;;;16.70;78.70;;;;;;4966922;28;20082;-60
2021/09/19 01:07:15;;;;;;;17.60;9.40;;;16.80;78.50;;;;;;4951473;28;20101;-60
2021/09/19 01:09:42;;;;;;;12.20;9.10;;;16.80;78.50;;;;;;4967729;28;20146;-60
2021/09/19 01:12:09;;;;;;;14.45;8.85;;;16.80;78.50;;;;;;4961413;28;20458;-60
2021/09/19 01:14:41;;;;;;;26.77;8.38;;;16.80;78.50;;;;;;4968972;28;20102;-60
2021/09/19 01:17:08;;;;;;;14.93;9.32;;;16.70;78.90;;;;;;4968879;28;20053;-60
2021/09/19 01:19:36;;;;;;;23.85;10.75;;;16.70;78.60;;;;;;4970017;28;20122;-59
2021/09/19 01:22:03;;;;;;;19.77;10.27;;;16.70;78.70;;;;;;4962517;28;20055;-58
2021/09/19 01:24:30;;;;;;;18.45;10.68;;;16.70;78.60;;;;;;4950230;29;20051;-60
2021/09/19 01:26:57;;;;;;;13.18;9.82;;;16.70;78.70;;;;;;4956763;28;20476;-59
2021/09/19 01:29:24;;;;;;;15.25;9.23;;;16.70;78.90;;;;;;4951073;28;20047;-59
2021/09/19 01:31:51;;;;;;;16.17;10.30;;;16.60;78.80;;;;;;4958215;28;20111;-60
2021/09/19 01:34:18;;;;;;;19.67;10.65;;;16.60;78.90;;;;;;4967417;28;20125;-60
2021/09/19 01:36:44;;;;;;;21.15;10.27;;;16.60;79.10;;;;;;4964482;28;20051;-59
2021/09/19 01:39:11;;;;;;;20.45;11.77;;;16.60;79.20;;;;;;4965360;28;20090;-58
2021/09/19 01:41:38;;;;;;;16.85;11.65;;;16.50;79.30;;;;;;4964756;28;20047;-60
2021/09/19 01:44:06;;;;;;;15.85;11.15;;;16.50;79.30;;;;;;4939107;29;20531;-60
2021/09/19 01:46:33;;;;;;;21.02;14.55;;;16.50;79.50;;;;;;4957662;28;20505;-60
2021/09/19 01:49:00;;;;;;;23.45;13.95;;;16.50;79.90;;;;;;4960853;28;20105;-59
2021/09/19 01:51:26;;;;;;;26.92;15.15;;;16.50;79.90;;;;;;4964637;28;20051;-59
2021/09/19 01:53:53;;;;;;;23.85;14.68;;;16.50;80.00;;;;;;4951712;28;20124;-59
2021/09/19 01:56:21;;;;;;;19.08;13.50;;;16.50;80.00;;;;;;4966829;28;20043;-61
2021/09/19 01:58:50;;;;;;;28.40;14.05;;;16.50;80.10;;;;;;4957250;28;20051;-60
2021/09/19 02:01:21;;;;;;;22.70;13.60;;;16.50;80.30;;;;;;4948324;28;20139;-59
2021/09/19 02:03:52;;;;;;;21.88;12.82;;;16.40;80.40;;;;;;4960368;28;20078;-59
2021/09/19 02:06:19;;;;;;;24.10;12.77;;;16.40;80.70;;;;;;4967738;28;20050;-59
2021/09/19 02:08:46;;;;;;;22.77;13.82;;;16.40;80.10;;;;;;4957822;28;20061;-58
2021/09/19 02:11:13;;;;;;;20.73;13.10;;;16.40;80.20;;;;;;4969752;28;20058;-59
2021/09/19 02:13:40;;;;;;;18.88;13.55;;;16.40;80.20;;;;;;4964396;28;20047;-59
2021/09/19 02:16:08;;;;;;;21.08;13.38;;;16.40;80.20;;;;;;4968823;28;20051;-59
2021/09/19 02:19:22;;;;;;;23.55;13.40;;;16.40;80.30;;;;;;4964084;28;20138;-59
2021/09/19 02:21:48;;;;;;;21.08;13.23;;;16.40;81.50;;;;;;4967488;29;20055;-59
2021/09/19 02:24:15;;;;;;;22.77;13.15;;;16.40;80.20;;;;;;4636854;28;10000578;-60
2021/09/19 02:26:42;;;;;;;18.55;14.05;;;16.40;80.20;;;;;;4969912;29;20051;-60
2021/09/19 02:29:09;;;;;;;24.25;14.02;;;16.40;80.30;;;;;;4958129;28;20031;-58
2021/09/19 02:31:36;;;;;;;25.42;13.68;;;16.40;80.30;;;;;;4985620;28;20104;-59
2021/09/19 02:34:03;;;;;;;24.77;15.05;;;16.40;80.30;;;;;;4977657;28;20050;-59
2021/09/19 02:36:29;;;;;;;28.92;16.63;;;16.30;80.40;;;;;;4972713;28;20491;-60
2021/09/19 02:38:56;;;;;;;30.35;17.13;;;16.30;80.60;;;;;;4962296;28;20184;-59
2021/09/19 02:41:25;;;;;;;25.25;15.35;;;16.30;80.40;;;;;;4980751;28;20468;-59
2021/09/19 02:44:32;;;;;;;23.13;15.65;;;16.30;80.40;;;;;;4973884;28;20051;-59
2021/09/19 02:47:35;;;;;;;23.70;14.60;;;16.30;81.60;;;;;;4978951;28;20046;-60
2021/09/19 02:50:06;;;;;;;21.50;15.23;;;16.20;80.70;;;;;;4974639;28;20055;-59
2021/09/19 02:52:50;;;;;;;26.83;16.48;;;16.20;81.40;;;;;;4964961;29;20071;-59
2021/09/19 02:55:30;;;;;;;24.15;15.02;;;16.10;83.10;;;;;;4963480;28;20054;-59
2021/09/19 02:57:57;;;;;;;21.40;14.60;;;16.10;80.80;;;;;;4972992;28;20042;-59
2021/09/19 03:00:24;;;;;;;21.10;13.38;;;16.10;80.70;;;;;;4968203;28;20382;-59
2021/09/19 03:03:34;;;;;;;21.00;13.55;;;16.00;80.70;;;;;;4990557;28;20070;-59
2021/09/19 03:10:42;;;;;;;19.13;12.50;;;15.90;82.90;;;;;;4979663;28;20131;-60
2021/09/19 03:17:45;;;;;;;24.27;15.07;;;15.80;83.10;;;;;;4978090;28;20755;-59
2021/09/19 03:20:14;;;;;;;21.77;15.00;;;15.70;81.00;;;;;;4969353;28;20079;-59
2021/09/19 03:22:40;;;;;;;22.58;15.75;;;15.70;81.30;;;;;;4966984;28;20083;-59
2021/09/19 03:30:09;;;;;;;30.13;15.25;;;15.70;82.90;;;;;;4980025;28;20051;-59
2021/09/19 03:33:48;;;;;;;22.10;14.10;;;15.60;83.40;;;;;;4990110;28;20041;-58
2021/09/19 03:36:50;;;;;;;27.95;15.48;;;15.60;83.10;;;;;;4973204;28;20121;-58
2021/09/19 03:39:17;;;;;;;25.08;15.60;;;15.60;81.30;;;;;;4981353;28;20043;-60
2021/09/19 03:41:44;;;;;;;24.20;16.92;;;15.50;81.40;;;;;;4978129;28;20043;-59
2021/09/19 03:44:55;;;;;;;22.08;14.70;;;15.50;81.50;;;;;;4946544;29;20510;-60
2021/09/19 03:48:23;;;;;;;20.15;14.32;;;15.50;82.70;;;;;;4969368;28;20053;-58
2021/09/19 03:50:50;;;;;;;19.73;12.85;;;15.50;83.30;;;;;;4981068;28;20047;-60
2021/09/19 03:53:17;;;;;;;23.13;13.05;;;15.40;81.50;;;;;;4966849;28;20049;-59
2021/09/19 03:55:43;;;;;;;20.10;12.70;;;15.40;81.90;;;;;;4976943;28;20107;-59
2021/09/19 03:58:10;;;;;;;22.27;13.88;;;15.40;81.90;;;;;;4971577;28;20050;-59
2021/09/19 04:00:37;;;;;;;22.27;13.52;;;15.40;82.10;;;;;;4977312;28;20050;-59
2021/09/19 04:03:07;;;;;;;18.83;13.18;;;15.40;82.10;;;;;;4976473;28;20047;-59
2021/09/19 04:05:36;;;;;;;23.25;13.80;;;15.40;82.20;;;;;;4975739;28;20046;-59
2021/09/19 04:08:03;;;;;;;20.13;12.73;;;15.40;81.90;;;;;;4966390;28;20039;-59
2021/09/19 04:10:30;;;;;;;19.83;12.82;;;15.40;82.10;;;;;;4959911;28;20055;-59
2021/09/19 04:12:57;;;;;;;26.02;13.88;;;15.30;82.30;;;;;;4965448;28;20086;-60
2021/09/19 04:15:24;;;;;;;23.02;14.10;;;15.30;82.60;;;;;;4986869;28;20043;-60
2021/09/19 04:17:51;;;;;;;22.02;13.70;;;15.30;82.60;;;;;;4980115;28;20055;-59
2021/09/19 04:20:17;;;;;;;20.35;14.05;;;15.40;82.70;;;;;;4968166;29;20086;-59
2021/09/19 04:22:44;;;;;;;20.35;12.43;;;15.40;82.70;;;;;;4978749;28;20078;-59
2021/09/19 04:25:11;;;;;;;22.38;13.70;;;15.50;82.60;;;;;;4978521;28;20043;-58
2021/09/19 04:27:38;;;;;;;24.48;14.52;;;15.50;82.40;;;;;;4970185;28;20173;-58
2021/09/19 04:30:05;;;;;;;23.88;12.82;;;15.50;82.30;;;;;;4981252;28;20039;-59
2021/09/19 04:32:32;;;;;;;17.15;11.98;;;15.50;82.20;;;;;;4984736;28;20050;-59
2021/09/19 04:36:00;;;;;;;20.17;12.52;;;15.50;82.20;;;;;;4976415;28;20047;-59
2021/09/19 04:46:47;;;;;;;18.40;10.60;;;15.30;84.20;;;;;;4996023;28;20081;-59
2021/09/19 04:49:37;;;;;;;16.95;10.82;;;15.30;82.30;;;;;;4994172;28;20070;-59
2021/09/19 04:52:04;;;;;;;16.70;11.48;;;15.30;84.30;;;;;;4965853;28;20281;-59
2021/09/19 04:54:31;;;;;;;20.08;12.27;;;15.30;82.40;;;;;;4934563;28;20050;-59
2021/09/19 04:56:58;;;;;;;18.20;10.98;;;15.20;82.70;;;;;;4970299;28;20098;-58
2021/09/19 04:59:25;;;;;;;20.15;10.57;;;15.20;83.00;;;;;;4958207;28;20050;-61
2021/09/19 05:01:52;;;;;;;19.52;12.98;;;15.10;83.10;;;;;;4965191;28;20051;-59
2021/09/19 05:04:19;;;;;;;21.35;12.13;;;15.10;83.20;;;;;;4963790;28;20051;-60
2021/09/19 05:06:45;;;;;;;16.65;11.60;;;15.10;83.30;;;;;;4952927;28;20047;-59
2021/09/19 05:09:12;;;;;;;16.65;11.43;;;15.10;83.30;;;;;;4958572;28;20459;-60
2021/09/19 05:11:39;;;;;;;21.40;11.38;;;15.10;83.40;;;;;;4945768;28;20054;-59
2021/09/19 05:14:06;;;;;;;18.80;13.00;;;15.10;83.50;;;;;;4965176;28;20557;-59
2021/09/19 05:16:33;;;;;;;16.42;10.88;;;15.10;83.60;;;;;;4937946;28;20138;-58
2021/09/19 05:19:00;;;;;;;21.35;13.13;;;15.20;84.20;;;;;;4964447;28;20109;-59
2021/09/19 05:21:26;;;;;;;22.58;13.85;;;15.20;83.60;;;;;;4969024;28;20059;-60
2021/09/19 05:23:53;;;;;;;25.23;13.63;;;15.30;83.80;;;;;;4968001;28;20058;-61
2021/09/19 05:26:24;;;;;;;21.25;13.82;;;15.40;83.70;;;;;;4956620;28;20058;-59
2021/09/19 05:28:51;;;;;;;39.75;12.80;;;15.40;83.70;;;;;;4949919;29;20039;-59
2021/09/19 05:31:17;;;;;;;22.23;14.43;;;15.40;83.70;;;;;;4961576;28;20656;-59
2021/09/19 05:33:46;;;;;;;20.73;12.73;;;15.40;83.70;;;;;;4966330;28;20047;-59
2021/09/19 05:36:13;;;;;;;16.77;12.82;;;15.40;83.70;;;;;;4958170;28;20059;-59
2021/09/19 05:38:40;;;;;;;20.77;14.32;;;15.50;83.70;;;;;;4968753;28;20055;-60
2021/09/19 05:41:07;;;;;;;19.52;12.88;;;15.50;83.70;;;;;;4951744;28;20082;-59
2021/09/19 05:43:34;;;;;;;19.38;13.07;;;15.50;83.60;;;;;;4951630;28;20047;-62
2021/09/19 05:46:00;;;;;;;15.43;12.27;;;15.50;83.60;;;;;;4957326;28;20051;-60
2021/09/19 05:48:27;;;;;;;17.35;12.32;;;15.50;83.50;;;;;;4968884;28;20133;-59
2021/09/19 05:50:54;;;;;;;23.20;11.70;;;15.50;83.50;;;;;;4956434;28;20673;-60
2021/09/19 05:53:21;;;;;;;19.60;12.63;;;15.40;83.60;;;;;;4968975;28;20129;-60
2021/09/19 05:55:47;;;;;;;19.63;12.07;;;15.40;83.70;;;;;;4964519;28;20486;-60
2021/09/19 05:58:14;;;;;;;23.02;11.90;;;15.50;83.70;;;;;;4950578;28;20083;-59
2021/09/19 06:00:41;;;;;;;19.15;13.48;;;15.50;83.70;;;;;;4953101;28;20131;-59
2021/09/19 06:03:10;;;;;;;17.73;12.68;;;15.50;83.70;;;;;;4965324;28;20050;-59
2021/09/19 06:05:37;;;;;;;15.70;11.25;;;15.50;83.60;;;;;;4960897;28;20043;-58
2021/09/19 06:08:04;;;;;;;18.85;11.57;;;15.40;83.70;;;;;;4966442;28;20079;-58
2021/09/19 06:10:31;;;;;;;20.90;11.57;;;15.40;83.70;;;;;;4963922;28;20062;-59
2021/09/19 06:12:58;;;;;;;18.83;11.98;;;15.40;83.70;;;;;;4956180;28;20054;-58
2021/09/19 06:15:24;;;;;;;19.63;12.50;;;15.40;83.80;;;;;;4952015;28;20102;-59
2021/09/19 06:17:51;;;;;;;17.02;12.02;;;15.40;83.90;;;;;;4959141;28;20050;-59
2021/09/19 06:20:18;;;;;;;18.65;11.75;;;15.40;83.90;;;;;;4964692;28;20522;-59
2021/09/19 06:22:45;;;;;;;18.50;13.07;;;15.40;83.80;;;;;;4626938;28;10000500;-59
2021/09/19 06:25:12;;;;;;;19.45;12.05;;;15.40;83.80;;;;;;4964564;28;20097;-58
2021/09/19 06:27:39;;;;;;;19.20;11.95;;;15.40;83.80;;;;;;4970235;28;20145;-59
2021/09/19 06:30:06;;;;;;;20.35;12.02;;;15.50;83.90;;;;;;4974489;28;20116;-59
2021/09/19 06:32:33;;;;;;;17.70;11.85;;;15.50;83.90;;;;;;4966090;28;20141;-59
2021/09/19 06:35:00;;;;;;;21.45;13.50;;;15.50;83.90;;;;;;4975380;28;20061;-58
2021/09/19 06:37:27;;;;;;;16.30;11.98;;;15.50;83.90;;;;;;4964706;28;20146;-59
2021/09/19 06:39:54;;;;;;;21.25;12.93;;;15.50;84.00;;;;;;4963048;28;20093;-59
2021/09/19 06:42:21;;;;;;;23.08;12.80;;;15.60;84.00;;;;;;4963785;28;20112;-59
2021/09/19 06:44:49;;;;;;;24.67;12.50;;;15.60;84.00;;;;;;4972552;28;20421;-59
2021/09/19 06:47:16;;;;;;;23.95;13.85;;;15.60;83.90;;;;;;4970491;28;20085;-58
2021/09/19 06:49:43;;;;;;;19.65;11.90;;;15.60;83.90;;;;;;4968080;28;20451;-58
2021/09/19 06:52:10;;;;;;;23.52;13.30;;;15.60;84.00;;;;;;4961320;28;20074;-58
2021/09/19 06:54:37;;;;;;;18.55;12.48;;;15.60;84.00;;;;;;4950657;28;20059;-58
2021/09/19 06:57:04;;;;;;;19.25;14.23;;;15.70;84.00;;;;;;4957263;28;20117;-58
2021/09/19 06:59:31;;;;;;;19.52;12.18;;;15.70;84.00;;;;;;4964355;28;20105;-58
2021/09/19 07:01:57;;;;;;;26.13;14.02;;;15.80;84.00;;;;;;4962778;28;20058;-58
2021/09/19 07:04:24;;;;;;;17.83;12.05;;;15.80;83.90;;;;;;4963255;28;20066;-58
2021/09/19 07:06:51;;;;;;;21.55;13.13;;;15.70;84.60;;;;;;4959131;28;20094;-58
2021/09/19 07:09:18;;;;;;;19.27;12.75;;;15.70;84.10;;;;;;4961693;28;20085;-58
2021/09/19 07:11:45;;;;;;;23.05;13.25;;;15.70;84.30;;;;;;4963943;28;20082;-58
2021/09/19 07:14:11;;;;;;;18.15;13.02;;;15.60;84.30;;;;;;4963703;28;20066;-58
2021/09/19 07:16:41;;;;;;;21.77;14.90;;;15.70;84.20;;;;;;4963071;28;20141;-58
2021/09/19 07:19:07;;;;;;;21.08;14.18;;;15.80;84.20;;;;;;4962573;28;20070;-58
2021/09/19 07:21:34;;;;;;;24.95;14.90;;;15.80;84.30;;;;;;4964869;28;20090;-60
2021/09/19 07:24:01;;;;;;;23.83;14.73;;;15.90;84.90;;;;;;4958919;28;20455;-59
2021/09/19 07:26:28;;;;;;;19.73;13.98;;;15.90;84.60;;;;;;4965041;28;20050;-60
2021/09/19 07:28:55;;;;;;;18.98;14.32;;;16.00;84.20;;;;;;4968320;28;20680;-59
2021/09/19 07:31:22;;;;;;;19.40;14.07;;;16.10;84.20;;;;;;4967695;28;20065;-59
2021/09/19 07:33:51;;;;;;;20.38;15.38;;;16.10;84.00;;;;;;4966127;28;20050;-59
2021/09/19 07:36:18;;;;;;;21.77;15.80;;;16.20;84.00;;;;;;4967219;28;20113;-60
2021/09/19 07:38:45;;;;;;;24.63;15.32;;;16.20;83.80;;;;;;4950157;28;20130;-58
2021/09/19 07:41:12;;;;;;;27.05;16.15;;;16.30;83.70;;;;;;4623812;28;10000180;-59
2021/09/19 07:43:40;;;;;;;23.65;14.75;;;16.40;83.60;;;;;;4966408;28;20162;-59
2021/09/19 07:46:06;;;;;;;28.33;15.57;;;16.40;83.30;;;;;;4967044;28;20185;-59
2021/09/19 07:48:33;;;;;;;28.33;17.50;;;16.50;83.30;;;;;;4968181;28;20058;-59
2021/09/19 07:51:00;;;;;;;21.73;15.35;;;16.60;83.20;;;;;;4967493;28;20078;-58
2021/09/19 07:53:27;;;;;;;25.63;17.77;;;16.70;83.20;;;;;;4969591;28;20117;-59
2021/09/19 07:55:54;;;;;;;22.27;15.63;;;16.70;83.10;;;;;;4954944;28;20047;-59
2021/09/19 07:58:21;;;;;;;23.63;16.98;;;16.80;83.10;;;;;;4970173;28;20055;-60
2021/09/19 08:00:47;;;;;;;24.42;15.52;;;16.90;83.00;;;;;;4952051;28;20415;-59
2021/09/19 08:03:14;;;;;;;29.92;17.83;;;16.90;82.90;;;;;;4976425;28;20066;-59
2021/09/19 08:05:42;;;;;;;24.13;15.05;;;17.00;82.90;;;;;;4973763;28;20062;-58
2021/09/19 08:08:08;;;;;;;23.02;16.58;;;17.00;82.60;;;;;;4978071;28;20133;-59
2021/09/19 08:10:35;;;;;;;24.92;16.17;;;17.10;82.60;;;;;;4968880;28;20086;-59
2021/09/19 08:13:02;;;;;;;32.17;18.13;;;17.20;82.50;;;;;;4971345;28;20050;-58
2021/09/19 08:15:29;;;;;;;33.08;18.48;;;17.30;82.30;;;;;;4951684;28;20066;-59
2021/09/19 08:17:56;;;;;;;27.40;18.27;;;17.30;82.10;;;;;;4956361;28;20174;-60
2021/09/19 08:20:22;;;;;;;20.90;15.55;;;17.40;81.80;;;;;;4969611;28;20047;-59
2021/09/19 08:22:49;;;;;;;24.88;14.60;;;17.30;81.90;;;;;;4968637;28;20086;-58
2021/09/19 08:25:16;;;;;;;23.95;18.35;;;17.40;82.00;;;;;;4964457;28;20193;-58
2021/09/19 08:27:43;;;;;;;24.10;15.57;;;17.40;82.00;;;;;;4969025;28;20158;-58
2021/09/19 08:30:11;;;;;;;24.13;17.17;;;17.40;82.10;;;;;;4962573;28;20070;-58
2021/09/19 08:32:38;;;;;;;23.58;16.90;;;17.30;81.90;;;;;;4965009;28;20113;-59
2021/09/19 08:35:07;;;;;;;27.08;18.83;;;17.30;81.70;;;;;;4964143;28;20494;-58
2021/09/19 08:37:33;;;;;;;22.90;16.23;;;17.40;82.00;;;;;;4968663;28;20458;-58
2021/09/19 08:40:00;;;;;;;25.52;18.75;;;17.40;81.90;;;;;;4949911;28;20053;-58
2021/09/19 08:42:27;;;;;;;26.23;19.45;;;17.30;82.00;;;;;;4965585;28;20078;-59
2021/09/19 08:44:54;;;;;;;28.58;19.23;;;17.40;81.80;;;;;;4967007;28;20226;-59
2021/09/19 08:47:21;;;;;;;29.58;19.13;;;17.40;81.80;;;;;;4974120;28;20136;-58
2021/09/19 08:49:48;;;;;;;35.33;22.88;;;17.40;81.70;;;;;;4952011;28;20573;-59
2021/09/19 08:52:15;;;;;;;31.58;21.52;;;17.50;81.70;;;;;;4965510;28;20078;-59
2021/09/19 08:54:41;;;;;;;31.45;20.23;;;17.60;81.70;;;;;;4969671;28;20054;-55
2021/09/19 08:57:08;;;;;;;27.48;20.30;;;17.60;81.60;;;;;;4971075;28;20046;-55
2021/09/19 08:59:49;;;;;;;31.80;21.60;;;17.70;81.70;;;;;;4980180;28;20078;-55
2021/09/19 09:02:16;;;;;;;31.25;21.65;;;17.70;81.40;;;;;;4966115;28;20533;-55
2021/09/19 09:04:44;;;;;;;38.58;23.38;;;17.60;81.50;;;;;;4967919;28;20498;-56
2021/09/19 09:07:12;;;;;;;28.98;20.63;;;17.60;81.70;;;;;;4962929;28;20046;-52
2021/09/19 09:09:51;;;;;;;32.95;21.05;;;17.80;81.70;;;;;;4968551;28;20057;-56
2021/09/19 09:12:17;;;;;;;33.95;23.42;;;17.80;81.30;;;;;;4950561;28;20073;-56
2021/09/19 09:14:51;;;;;;;38.47;22.55;;;17.90;80.80;;;;;;4968406;28;20130;-57
2021/09/19 09:17:23;;;;;;;37.50;22.17;;;18.00;80.70;;;;;;4962692;28;20355;-58
2021/09/19 09:19:58;;;;;;;;;;;18.00;80.60;;;;;;4960620;28;20058;-54
2021/09/19 09:22:30;;;;;;;31.98;23.20;;;18.10;80.70;;;;;;4964462;28;19957;-55
2021/09/19 09:25:03;;;;;;;35.60;21.77;;;18.10;80.40;;;;;;4965539;28;20054;-54
2021/09/19 09:27:30;;;;;;;33.93;21.60;;;18.10;80.90;;;;;;4956563;28;20139;-54
2021/09/19 09:30:15;;;;;;;34.78;23.80;;;18.10;80.50;;;;;;4951042;28;20054;-56
2021/09/19 09:33:04;;;;;;;41.55;23.17;;;18.20;80.70;;;;;;4966987;28;20050;-54
2021/09/19 09:35:30;;;;;;;37.42;23.75;;;18.10;80.30;;;;;;4968317;28;20464;-58
2021/09/19 09:37:57;;;;;;;37.35;25.92;;;18.20;80.10;;;;;;4961396;28;20237;-56
2021/09/19 09:40:31;;;;;;;33.92;24.40;;;18.20;80.10;;;;;;4966491;28;20078;-56
2021/09/19 09:43:03;;;;;;;33.67;22.75;;;18.20;80.30;;;;;;4950505;28;20261;-55
2021/09/19 09:45:31;;;;;;;33.50;22.67;;;18.30;80.00;;;;;;4966217;28;20133;-56
2021/09/19 09:47:58;;;;;;;40.10;23.02;;;18.40;79.80;;;;;;4963331;28;20134;-55
2021/09/19 09:50:28;;;;;;;36.55;24.92;;;18.50;79.70;;;;;;4967613;28;20139;-56
2021/09/19 09:53:11;;;;;;;41.47;27.45;;;18.50;79.50;;;;;;4949883;28;20110;-60
2021/09/19 09:55:42;;;;;;;42.08;27.88;;;18.60;79.30;;;;;;4623103;28;10000195;-55
2021/09/19 09:58:13;;;;;;;39.00;22.90;;;18.60;79.20;;;;;;4961071;28;20356;-57
2021/09/19 10:00:40;;;;;;;38.33;25.77;;;18.70;79.00;;;;;;4967610;28;20089;-55
2021/09/19 10:03:07;;;;;;;36.15;24.67;;;18.80;78.90;;;;;;4964403;28;20051;-57
2021/09/19 10:05:34;;;;;;;37.08;24.95;;;18.90;79.20;;;;;;4960844;28;20051;-57
2021/09/19 10:08:01;;;;;;;47.72;27.55;;;19.10;78.90;;;;;;4960412;28;20412;-56
2021/09/19 10:10:32;;;;;;;33.97;25.50;;;19.20;78.50;;;;;;4968444;28;20089;-58
2021/09/19 10:12:59;;;;;;;42.22;25.92;;;19.30;78.30;;;;;;4962946;28;20079;-58
2021/09/19 10:15:26;;;;;;;36.22;26.20;;;19.30;78.10;;;;;;4949046;28;20158;-59
2021/09/19 10:17:53;;;;;;;40.47;27.80;;;19.40;77.80;;;;;;4946013;28;20058;-58
2021/09/19 10:20:23;;;;;;;45.88;27.48;;;19.40;77.80;;;;;;4955505;28;20576;-59
2021/09/19 10:23:01;;;;;;;36.95;26.15;;;19.50;77.70;;;;;;4963524;28;20078;-56
2021/09/19 10:25:42;;;;;;;42.15;28.70;;;19.60;76.80;;;;;;4959505;28;20585;-58
2021/09/19 10:28:19;;;;;;;43.40;30.33;;;19.60;76.70;;;;;;4963695;28;20147;-60
2021/09/19 10:31:07;;;;;;;47.92;28.83;;;19.60;76.60;;;;;;4963092;28;20094;-56
2021/09/19 10:33:37;;;;;;;41.05;26.85;;;19.60;76.30;;;;;;4963399;28;20069;-57
2021/09/19 10:36:20;;;;;;;35.38;26.33;;;19.70;77.60;;;;;;4947064;28;20055;-58
2021/09/19 10:38:47;;;;;;;39.00;27.15;;;19.80;75.80;;;;;;4963601;28;20129;-56
2021/09/19 10:41:22;;;;;;;38.60;26.70;;;19.90;76.40;;;;;;4963767;28;20055;-54
2021/09/19 10:44:00;;;;;;;40.90;27.13;;;20.00;75.80;;;;;;4963027;28;20055;-57
2021/09/19 10:46:36;;;;;;;38.42;25.38;;;20.00;75.00;;;;;;4940528;28;20137;-57
2021/09/19 10:49:18;;;;;;;41.63;26.70;;;20.10;74.70;;;;;;4965600;28;20138;-57
2021/09/19 10:52:00;;;;;;;37.65;25.95;;;20.20;74.70;;;;;;4965450;28;20086;-55
2021/09/19 10:54:49;;;;;;;41.72;26.55;;;20.20;73.00;;;;;;4966676;28;20458;-57
2021/09/19 10:57:37;;;;;;;40.10;27.52;;;20.30;72.80;;;;;;4961125;28;20046;-57
2021/09/19 11:00:08;;;;;;;43.60;29.33;;;20.40;73.40;;;;;;4953564;28;20047;-57
2021/09/19 11:02:38;;;;;;;37.80;28.10;;;20.40;73.90;;;;;;4962165;28;20046;-58
2021/09/19 11:05:25;;;;;;;40.97;28.92;;;20.50;73.60;;;;;;4963205;28;20140;-56
2021/09/19 11:08:08;;;;;;;42.33;28.55;;;20.60;72.70;;;;;;4956627;28;20145;-57
2021/09/19 11:10:50;;;;;;;39.90;28.20;;;20.60;71.70;;;;;;4956373;28;20145;-57
2021/09/19 11:13:25;;;;;;;38.78;27.10;;;20.50;72.60;;;;;;4964025;28;20299;-57
2021/09/19 11:16:04;;;;;;;46.97;31.58;;;20.60;73.60;;;;;;4962649;28;20061;-58
2021/09/19 11:18:46;;;;;;;42.80;28.50;;;20.70;72.60;;;;;;4964216;28;20050;-57
2021/09/19 11:21:20;;;;;;;40.92;27.20;;;20.70;73.10;;;;;;4961156;28;20711;-56
2021/09/19 11:23:54;;;;;;;41.97;27.25;;;20.70;71.90;;;;;;4942372;28;20518;-59
2021/09/19 11:26:22;;;;;;;44.22;28.05;;;20.70;72.20;;;;;;4955761;28;20080;-57
2021/09/19 11:28:50;;;;;;;43.08;29.20;;;20.70;73.20;;;;;;4960507;28;20459;-58
2021/09/19 11:31:17;;;;;;;38.72;26.67;;;20.80;72.80;;;;;;4958221;28;20131;-57
2021/09/19 11:33:44;;;;;;;40.88;26.10;;;20.80;72.90;;;;;;4947562;28;20097;-57
2021/09/19 11:36:21;;;;;;;38.33;25.58;;;20.80;73.10;;;;;;4958294;28;20105;-58
2021/09/19 11:38:50;;;;;;;28.48;19.13;;;20.90;72.40;;;;;;4959800;28;20051;-58
2021/09/19 11:41:17;;;;;;;37.83;21.85;;;20.80;70.00;;;;;;4948227;28;20485;-58
2021/09/19 11:43:44;;;;;;;33.47;21.30;;;20.70;71.40;;;;;;4960786;28;20162;-58
2021/09/19 11:46:13;;;;;;;33.15;23.85;;;20.70;71.70;;;;;;4960136;28;20126;-58
2021/09/19 11:48:40;;;;;;;36.13;23.05;;;20.80;71.90;;;;;;4961358;28;20049;-58
2021/09/19 11:51:07;;;;;;;33.13;22.88;;;20.80;71.70;;;;;;4958855;28;20820;-58
2021/09/19 11:53:34;;;;;;;37.72;24.95;;;20.90;71.60;;;;;;4951158;28;20557;-57
2021/09/19 11:56:03;;;;;;;37.90;25.00;;;20.80;71.30;;;;;;4965324;28;20051;-57
2021/09/19 11:58:30;;;;;;;36.72;24.17;;;20.80;71.30;;;;;;4965191;28;20082;-58
2021/09/19 12:00:58;;;;;;;30.02;21.40;;;20.90;71.60;;;;;;4963241;28;20050;-57
2021/09/19 12:03:25;;;;;;;25.67;16.75;;;20.80;72.20;;;;;;4957172;28;20063;-57
2021/09/19 12:05:54;;;;;;;19.17;13.50;;;20.80;72.70;;;;;;4971938;28;20097;-57
2021/09/19 12:08:22;;;;;;;16.85;10.88;;;20.70;73.10;;;;;;4963089;28;20097;-58
2021/09/19 12:10:53;;;;;;;13.48;9.82;;;20.60;73.40;;;;;;4950175;28;20489;-58
2021/09/19 12:13:29;;;;;;;12.25;8.27;;;20.50;74.00;;;;;;4966586;28;20579;-57
2021/09/19 12:16:13;;;;;;;10.02;7.78;;;20.40;74.20;;;;;;4968595;28;20083;-58
2021/09/19 12:18:44;;;;;;;13.88;7.68;;;20.20;75.20;;;;;;4961614;28;20112;-57
2021/09/19 12:21:13;;;;;;;13.68;7.40;;;20.10;75.70;;;;;;4963620;28;20113;-58
2021/09/19 12:23:50;;;;;;;13.13;7.15;;;19.90;76.20;;;;;;4964598;28;20090;-57
2021/09/19 12:26:24;;;;;;;9.60;7.20;;;19.90;76.10;;;;;;4966102;28;20462;-57
2021/09/19 12:28:57;;;;;;;9.05;7.70;;;19.90;77.50;;;;;;4964863;28;20086;-58
2021/09/19 12:31:44;;;;;;;10.73;7.68;;;19.80;77.10;;;;;;4966982;28;20047;-58
2021/09/19 12:34:14;;;;;;;13.43;8.82;;;19.60;78.30;;;;;;4965775;28;20086;-58
2021/09/19 12:36:44;;;;;;;10.40;8.23;;;19.40;78.10;;;;;;4963721;28;20085;-58
2021/09/19 12:39:15;;;;;;;12.65;9.07;;;19.30;78.50;;;;;;4964705;28;20518;-58
2021/09/19 12:41:43;;;;;;;10.57;8.15;;;19.30;78.30;;;;;;4966130;28;20465;-58
2021/09/19 12:44:17;;;;;;;10.95;8.07;;;19.20;79.00;;;;;;4967852;28;20503;-58
2021/09/19 12:46:48;;;;;;;15.45;9.00;;;19.10;80.80;;;;;;4967327;28;20101;-58
2021/09/19 12:49:23;;;;;;;15.20;10.00;;;19.10;80.70;;;;;;4962480;28;20081;-59
2021/09/19 12:52:15;;;;;;;15.20;12.05;;;18.90;80.80;;;;;;4963883;28;20085;-59
2021/09/19 12:54:45;;;;;;;13.50;11.32;;;18.80;83.70;;;;;;4964511;28;20090;-57
2021/09/19 12:57:13;;;;;;;15.57;11.50;;;18.70;82.80;;;;;;4966507;28;20551;-58
2021/09/19 12:59:40;;;;;;;18.58;13.68;;;18.70;82.70;;;;;;4964461;28;20289;-56
2021/09/19 13:02:07;;;;;;;22.40;15.73;;;18.50;82.60;;;;;;4946731;28;20553;-58
2021/09/19 13:04:34;;;;;;;31.33;18.90;;;18.50;82.70;;;;;;4962890;28;20064;-57
2021/09/19 13:07:01;;;;;;;26.80;18.55;;;18.40;84.60;;;;;;4950348;28;20049;-57